createdAt,value
2023-01-28T00:01:41.376Z,73.76
2023-01-28T00:04:09.113Z,73.64
2023-01-28T00:06:37.791Z,73.77
2023-01-28T00:09:05.438Z,73.79
2023-01-28T00:11:33.719Z,73.85
2023-01-28T00:14:01.480Z,73.81
2023-01-28T00:16:30.338Z,73.80
2023-01-28T00:18:58.287Z,73.63
2023-01-28T00:21:26.514Z,73.73
2023-01-28T00:23:56.008Z,73.81
2023-01-28T00:26:25.259Z,73.86
2023-01-28T00:28:52.942Z,73.78
2023-01-28T00:31:22.144Z,73.83
2023-01-28T00:33:51.398Z,73.81
2023-01-28T00:36:20.905Z,73.89
2023-01-28T00:38:56.530Z,73.70
2023-01-28T00:41:27.294Z,73.85
2023-01-28T00:43:55.047Z,73.82
2023-01-28T00:46:23.224Z,73.83
2023-01-28T00:48:50.968Z,73.83
2023-01-28T00:51:22.392Z,73.91
2023-01-28T00:53:50.316Z,73.85
2023-01-28T00:56:19.525Z,73.85
2023-01-28T00:58:47.870Z,73.92
2023-01-28T01:01:20.703Z,73.80
2023-01-28T01:03:57.471Z,73.92
2023-01-28T01:06:25.179Z,73.77
2023-01-28T01:08:52.864Z,73.87
2023-01-28T01:11:20.562Z,73.90
2023-01-28T01:13:56.940Z,73.80
2023-01-28T01:16:27.713Z,73.83
2023-01-28T01:18:56.783Z,73.83
2023-01-28T01:21:26.637Z,73.80
2023-01-28T01:23:55.277Z,73.79
2023-01-28T01:26:24.406Z,73.84
2023-01-28T01:28:52.224Z,73.75
2023-01-28T01:31:22.447Z,73.76
2023-01-28T01:33:51.953Z,73.79
2023-01-28T01:36:22.034Z,73.77
2023-01-28T01:38:55.394Z,73.77
2023-01-28T01:41:29.805Z,73.81
2023-01-28T01:43:59.019Z,73.86
2023-01-28T01:46:50.705Z,73.98
2023-01-28T01:49:24.820Z,74.01
2023-01-28T01:51:57.054Z,73.90
2023-01-28T01:54:28.637Z,73.96
2023-01-28T01:56:56.473Z,73.94
2023-01-28T01:59:33.480Z,73.90
2023-01-28T02:02:05.274Z,73.93
2023-01-28T02:04:38.769Z,73.95
2023-01-28T02:07:09.280Z,73.79
2023-01-28T02:09:38.493Z,73.87
2023-01-28T02:12:11.472Z,73.94
2023-01-28T02:14:47.446Z,73.93
2023-01-28T02:17:16.299Z,73.92
2023-01-28T02:19:49.926Z,74.01
2023-01-28T02:22:40.621Z,74.02
2023-01-28T02:25:39.884Z,73.94
2023-01-28T02:28:26.288Z,73.89
2023-01-28T02:31:25.992Z,73.89
2023-01-28T02:34:17.227Z,74.05
2023-01-28T02:36:44.848Z,73.96
2023-01-28T02:39:41.295Z,74.00
2023-01-28T02:42:31.982Z,74.12
2023-01-28T02:44:59.635Z,73.98
2023-01-28T02:47:43.176Z,73.93
2023-01-28T02:50:15.673Z,73.90
2023-01-28T02:53:12.621Z,73.96
2023-01-28T02:55:51.765Z,74.04
2023-01-28T02:58:26.087Z,74.10
2023-01-28T03:01:10.385Z,73.92
2023-01-28T03:03:40.789Z,73.89
2023-01-28T03:06:44.599Z,73.93
2023-01-28T03:09:31.124Z,73.82
2023-01-28T03:12:26.757Z,73.82
2023-01-28T03:15:28.919Z,73.92
2023-01-28T03:18:33.546Z,74.00
2023-01-28T03:21:33.088Z,73.98
2023-01-28T03:24:21.461Z,73.90
2023-01-28T03:27:11.326Z,73.88
2023-01-28T03:29:58.189Z,73.94
2023-01-28T03:32:41.968Z,73.91
2023-01-28T03:35:27.933Z,74.03
2023-01-28T03:37:55.598Z,74.02
2023-01-28T03:40:23.204Z,74.07
2023-01-28T03:42:52.245Z,74.13
2023-01-28T03:45:21.432Z,74.16
2023-01-28T03:47:49.076Z,74.06
2023-01-28T03:50:16.765Z,74.16
2023-01-28T03:52:44.441Z,74.05
2023-01-28T03:55:15.247Z,73.98
2023-01-28T03:57:45.006Z,74.05
2023-01-28T04:00:14.292Z,74.00
2023-01-28T04:02:41.997Z,73.99
2023-01-28T04:05:13.157Z,73.94
2023-01-28T04:07:45.937Z,73.96
2023-01-28T04:10:14.538Z,73.96
2023-01-28T04:12:42.500Z,73.90
2023-01-28T04:15:16.083Z,74.01
2023-01-28T04:17:48.443Z,73.99
2023-01-28T04:20:17.164Z,73.91
2023-01-28T04:22:44.737Z,73.88
2023-01-28T04:25:12.902Z,73.91
2023-01-28T04:27:41.073Z,73.87
2023-01-28T04:30:09.483Z,73.76
2023-01-28T04:32:37.126Z,73.80
2023-01-28T04:35:04.968Z,73.90
2023-01-28T04:37:32.612Z,74.05
2023-01-28T04:40:00.194Z,73.92
2023-01-28T04:42:27.811Z,73.95
2023-01-28T04:44:55.441Z,74.01
2023-01-28T04:47:23.098Z,73.90
2023-01-28T04:49:50.715Z,73.99
2023-01-28T04:52:18.418Z,73.98
2023-01-28T04:54:46.455Z,73.88
2023-01-28T04:57:15.115Z,73.86
2023-01-28T04:59:42.748Z,73.82
2023-01-28T05:02:10.352Z,73.76
2023-01-28T05:04:38.004Z,73.86
2023-01-28T05:07:05.631Z,73.75
2023-01-28T05:09:33.457Z,73.82
2023-01-28T05:12:01.073Z,73.74
2023-01-28T05:14:28.709Z,73.60
2023-01-28T05:16:56.422Z,73.77
2023-01-28T05:19:24.403Z,73.68
2023-01-28T05:21:52.047Z,73.80
2023-01-28T05:24:21.491Z,73.80
2023-01-28T05:26:49.350Z,73.61
2023-01-28T05:29:16.981Z,73.70
2023-01-28T05:31:44.579Z,73.67
2023-01-28T05:34:12.199Z,73.70
2023-01-28T05:36:41.201Z,73.71
2023-01-28T05:39:08.858Z,73.64
2023-01-28T05:41:36.502Z,73.73
2023-01-28T05:44:04.244Z,73.69
2023-01-28T05:46:31.892Z,73.63
2023-01-28T05:48:59.535Z,73.67
2023-01-28T05:51:27.141Z,73.54
2023-01-28T05:53:54.744Z,73.64
2023-01-28T05:56:22.386Z,73.61
2023-01-28T05:58:50.027Z,73.64
2023-01-28T06:01:17.885Z,73.65
2023-01-28T06:03:45.488Z,73.59
2023-01-28T06:06:13.159Z,73.57
2023-01-28T06:08:41.393Z,73.55
2023-01-28T06:11:09.034Z,73.47
2023-01-28T06:13:37.619Z,73.53
2023-01-28T06:16:05.579Z,73.59
2023-01-28T06:18:33.443Z,73.60
2023-01-28T06:21:01.090Z,73.63
2023-01-28T06:23:28.695Z,73.77
2023-01-28T06:25:57.496Z,73.65
2023-01-28T06:28:26.066Z,73.75
2023-01-28T06:30:53.856Z,73.71
2023-01-28T06:33:22.179Z,73.56
2023-01-28T06:35:49.893Z,73.52
2023-01-28T06:38:18.216Z,73.45
2023-01-28T06:40:52.163Z,73.53
2023-01-28T06:43:19.781Z,73.63
2023-01-28T06:45:47.486Z,73.60
2023-01-28T06:48:15.158Z,73.63
2023-01-28T06:50:42.791Z,73.60
2023-01-28T06:53:10.452Z,73.55
2023-01-28T06:55:38.114Z,73.72
2023-01-28T06:58:05.836Z,73.57
2023-01-28T07:00:33.719Z,73.61
2023-01-28T07:03:01.843Z,73.67
2023-01-28T07:05:29.665Z,73.50
2023-01-28T07:07:57.418Z,73.60
2023-01-28T07:10:25.308Z,73.54
2023-01-28T07:12:52.951Z,73.51
2023-01-28T07:15:20.564Z,73.49
2023-01-28T07:17:48.224Z,73.57
2023-01-28T07:20:17.458Z,73.53
2023-01-28T07:22:46.301Z,73.53
2023-01-28T07:25:15.376Z,73.45
2023-01-28T07:27:47.995Z,73.54
2023-01-28T07:30:17.278Z,73.58
2023-01-28T07:32:46.228Z,73.46
2023-01-28T07:35:14.466Z,73.31
2023-01-28T07:37:42.089Z,73.31
2023-01-28T07:40:10.712Z,73.34
2023-01-28T07:42:38.307Z,73.28
2023-01-28T07:45:06.591Z,73.43
2023-01-28T07:47:34.254Z,73.41
2023-01-28T07:50:01.959Z,73.51
2023-01-28T07:52:29.680Z,73.46
2023-01-28T07:54:57.293Z,73.41
2023-01-28T07:57:24.936Z,73.56
2023-01-28T07:59:52.546Z,73.38
2023-01-28T08:02:20.259Z,73.32
2023-01-28T08:04:48.149Z,73.33
2023-01-28T08:07:15.979Z,73.29
2023-01-28T08:09:43.611Z,73.26
2023-01-28T08:12:11.253Z,73.35
2023-01-28T08:14:38.900Z,73.19
2023-01-28T08:17:06.538Z,73.23
2023-01-28T08:19:34.449Z,73.32
2023-01-28T08:22:02.048Z,73.27
2023-01-28T08:24:29.730Z,73.18
2023-01-28T08:26:57.476Z,73.27
2023-01-28T08:29:25.189Z,73.18
2023-01-28T08:31:52.836Z,73.25
2023-01-28T08:34:20.551Z,73.14
2023-01-28T08:36:48.154Z,73.24
2023-01-28T08:39:15.816Z,73.41
2023-01-28T08:41:43.508Z,73.19
2023-01-28T08:44:11.308Z,73.08
2023-01-28T08:46:39.020Z,72.95
2023-01-28T08:49:06.735Z,73.11
2023-01-28T08:51:34.671Z,73.27
2023-01-28T08:54:02.404Z,73.14
2023-01-28T08:56:30.555Z,73.24
2023-01-28T08:58:58.208Z,73.18
2023-01-28T09:01:27.263Z,73.26
2023-01-28T09:03:55.609Z,73.29
2023-01-28T09:06:23.343Z,73.21
2023-01-28T09:08:50.972Z,73.11
2023-01-28T09:11:18.626Z,73.09
2023-01-28T09:13:46.303Z,73.02
2023-01-28T09:16:14.058Z,73.18
2023-01-28T09:18:41.776Z,73.20
2023-01-28T09:21:09.931Z,73.05
2023-01-28T09:23:38.576Z,73.10
2023-01-28T09:26:06.735Z,73.02
2023-01-28T09:28:34.393Z,72.94
2023-01-28T09:31:08.120Z,72.92
2023-01-28T09:33:38.496Z,72.91
2023-01-28T09:36:08.747Z,72.89
2023-01-28T09:38:36.704Z,72.88
2023-01-28T09:41:29.054Z,72.77
2023-01-28T09:44:27.012Z,72.85
2023-01-28T09:47:02.373Z,72.93
2023-01-28T09:49:48.685Z,72.67
2023-01-28T09:52:19.167Z,72.79
2023-01-28T09:54:50.624Z,72.70
2023-01-28T09:57:30.723Z,72.75
2023-01-28T09:59:59.330Z,72.54
2023-01-28T10:02:58.850Z,72.52
2023-01-28T10:05:40.805Z,72.50
2023-01-28T10:08:41.549Z,72.48
2023-01-28T10:11:09.158Z,72.66
2023-01-28T10:13:59.981Z,72.71
2023-01-28T10:16:55.422Z,72.57
2023-01-28T10:19:37.376Z,72.68
2023-01-28T10:22:14.858Z,72.71
2023-01-28T10:24:49.404Z,72.63
2023-01-28T10:27:21.217Z,72.58
2023-01-28T10:29:51.064Z,72.53
2023-01-28T10:32:38.534Z,72.40
2023-01-28T10:35:06.382Z,72.37
2023-01-28T10:37:36.714Z,72.22
2023-01-28T10:40:05.128Z,72.20
2023-01-28T10:42:36.647Z,72.28
2023-01-28T10:45:13.834Z,72.25
2023-01-28T10:47:47.251Z,72.35
2023-01-28T10:50:23.655Z,72.12
2023-01-28T10:52:57.896Z,72.20
2023-01-28T10:55:32.123Z,72.11
2023-01-28T10:58:00.221Z,72.17
2023-01-28T11:00:37.283Z,72.03
2023-01-28T11:03:04.968Z,71.69
2023-01-28T11:05:32.617Z,71.82
2023-01-28T11:08:06.789Z,71.82
2023-01-28T11:10:37.769Z,71.69
2023-01-28T11:13:06.904Z,71.73
2023-01-28T11:15:34.641Z,71.75
2023-01-28T11:18:11.379Z,71.94
2023-01-28T11:20:45.357Z,71.75
2023-01-28T11:23:26.328Z,71.57
2023-01-28T11:26:16.466Z,71.77
2023-01-28T11:28:44.215Z,71.74
2023-01-28T11:31:16.408Z,72.08
2023-01-28T11:34:01.296Z,72.16
2023-01-28T11:36:31.455Z,72.12
2023-01-28T11:39:17.055Z,71.96
2023-01-28T11:41:44.802Z,71.99
2023-01-28T11:44:29.831Z,71.88
2023-01-28T11:47:13.396Z,71.63
2023-01-28T11:49:50.448Z,71.59
2023-01-28T11:53:06.591Z,71.63
2023-01-28T11:55:48.074Z,71.56
2023-01-28T11:58:20.923Z,71.78
2023-01-28T12:01:22.483Z,71.78
2023-01-28T12:03:53.125Z,71.88
2023-01-28T12:06:23.951Z,71.86
2023-01-28T12:09:10.052Z,71.84
2023-01-28T12:12:19.718Z,71.77
2023-01-28T12:15:19.205Z,71.84
2023-01-28T12:18:23.015Z,71.85
2023-01-28T12:21:06.310Z,71.73
2023-01-28T12:24:04.936Z,71.69
2023-01-28T12:27:03.499Z,71.60
2023-01-28T12:29:47.498Z,71.66
2023-01-28T12:32:39.051Z,71.63
2023-01-28T12:35:38.932Z,71.50
2023-01-28T12:38:15.157Z,71.58
2023-01-28T12:40:49.043Z,71.59
2023-01-28T12:43:42.081Z,71.52
2023-01-28T12:46:18.011Z,71.52
2023-01-28T12:49:08.863Z,71.47
2023-01-28T12:52:09.421Z,71.21
2023-01-28T12:55:11.575Z,71.29
2023-01-28T12:57:39.409Z,71.29
2023-01-28T13:00:27.334Z,71.20
2023-01-28T13:03:26.970Z,71.21
2023-01-28T13:06:17.852Z,71.08
2023-01-28T13:08:45.529Z,71.10
2023-01-28T13:11:17.100Z,71.06
2023-01-28T13:13:46.790Z,71.04
2023-01-28T13:16:14.693Z,70.92
2023-01-28T13:18:46.834Z,71.09
2023-01-28T13:21:32.408Z,71.08
2023-01-28T13:24:02.401Z,71.04
2023-01-28T13:26:55.907Z,71.01
2023-01-28T13:29:39.779Z,71.03
2023-01-28T13:32:29.512Z,71.05
2023-01-28T13:35:03.579Z,70.91
2023-01-28T13:37:36.813Z,71.01
2023-01-28T13:40:09.211Z,70.89
2023-01-28T13:42:37.098Z,71.03
2023-01-28T13:45:22.615Z,70.94
2023-01-28T13:48:02.248Z,70.94
2023-01-28T13:50:40.151Z,70.91
2023-01-28T13:53:22.536Z,70.87
2023-01-28T13:55:55.568Z,70.93
2023-01-28T13:58:39.379Z,70.80
2023-01-28T14:01:07.050Z,70.84
2023-01-28T14:03:51.504Z,70.65
2023-01-28T14:06:35.185Z,70.65
2023-01-28T14:09:20.298Z,70.67
2023-01-28T14:12:21.710Z,70.73
2023-01-28T14:15:05.223Z,70.68
2023-01-28T14:17:49.958Z,70.45
2023-01-28T14:20:22.048Z,70.37
2023-01-28T14:22:50.704Z,70.38
2023-01-28T14:25:28.727Z,70.35
2023-01-28T14:27:57.764Z,70.51
2023-01-28T14:30:50.780Z,70.61
2023-01-28T14:33:18.697Z,70.55
2023-01-28T14:35:49.412Z,70.67
2023-01-28T14:38:21.394Z,70.42
2023-01-28T14:40:53.606Z,70.32
2023-01-28T14:43:27.196Z,70.19
2023-01-28T14:46:15.817Z,70.19
2023-01-28T14:48:43.573Z,70.29
2023-01-28T14:51:20.194Z,70.34
2023-01-28T14:54:19.681Z,70.43
2023-01-28T14:56:59.228Z,70.42
2023-01-28T14:59:36.953Z,70.36
2023-01-28T15:02:18.694Z,70.34
2023-01-28T15:04:47.327Z,70.31
2023-01-28T15:07:30.872Z,70.37
2023-01-28T15:10:06.571Z,70.31
2023-01-28T15:12:38.951Z,70.21
2023-01-28T15:15:23.545Z,70.22
2023-01-28T15:17:52.407Z,70.33
2023-01-28T15:20:23.516Z,70.31
2023-01-28T15:22:52.432Z,70.30
2023-01-28T15:25:22.831Z,70.23
2023-01-28T15:27:52.353Z,70.06
2023-01-28T15:30:26.990Z,69.80
2023-01-28T15:33:16.947Z,69.81
2023-01-28T15:35:52.261Z,69.74
2023-01-28T15:38:20.995Z,69.76
2023-01-28T15:40:54.485Z,69.70
2023-01-28T15:43:25.613Z,69.69
2023-01-28T15:45:55.966Z,69.71
2023-01-28T15:48:26.405Z,69.57
2023-01-28T15:51:03.059Z,69.75
2023-01-28T15:53:35.325Z,69.69
2023-01-28T15:56:08.525Z,69.87
2023-01-28T15:58:41.229Z,69.65
2023-01-28T16:01:09.162Z,69.55
2023-01-28T16:03:39.951Z,69.50
2023-01-28T16:06:23.737Z,69.70
2023-01-28T16:09:15.829Z,69.77
2023-01-28T16:11:46.544Z,69.57
2023-01-28T16:14:26.143Z,69.67
2023-01-28T16:16:56.225Z,69.55
2023-01-28T16:19:48.257Z,69.53
2023-01-28T16:22:21.571Z,69.51
2023-01-28T16:24:55.328Z,69.39
2023-01-28T16:27:25.598Z,69.35
2023-01-28T16:29:54.081Z,69.33
2023-01-28T16:32:38.841Z,69.15
2023-01-28T16:35:24.800Z,68.95
2023-01-28T16:37:52.570Z,68.93
2023-01-28T16:40:23.408Z,68.92
2023-01-28T16:42:54.841Z,68.88
2023-01-28T16:45:25.861Z,69.06
2023-01-28T16:47:53.632Z,69.18
2023-01-28T16:50:22.170Z,69.23
2023-01-28T16:52:53.711Z,69.22
2023-01-28T16:55:22.669Z,69.31
2023-01-28T16:57:53.030Z,69.41
2023-01-28T17:00:24.023Z,69.45
2023-01-28T17:02:52.777Z,69.22
2023-01-28T17:05:22.150Z,69.18
2023-01-28T17:07:50.532Z,69.07
2023-01-28T17:10:20.515Z,69.21
2023-01-28T17:12:49.101Z,69.16
2023-01-28T17:15:17.811Z,69.12
2023-01-28T17:17:49.331Z,69.22
2023-01-28T17:20:17.563Z,69.12
2023-01-28T17:22:46.263Z,69.17
2023-01-28T17:25:14.871Z,69.12
2023-01-28T17:27:42.773Z,69.00
2023-01-28T17:30:11.104Z,68.78
2023-01-28T17:32:38.741Z,68.57
2023-01-28T17:35:06.897Z,68.52
2023-01-28T17:37:35.063Z,68.59
2023-01-28T17:40:03.013Z,68.77
2023-01-28T17:42:31.049Z,68.78
2023-01-28T17:45:02.919Z,68.87
2023-01-28T17:47:31.067Z,68.88
2023-01-28T17:49:58.850Z,68.85
2023-01-28T17:52:26.830Z,68.84
2023-01-28T17:54:56.047Z,68.89
2023-01-28T17:57:24.308Z,68.82
2023-01-28T17:59:51.926Z,68.77
2023-01-28T18:02:19.623Z,68.68
2023-01-28T18:04:47.305Z,68.60
2023-01-28T18:07:14.954Z,68.67
2023-01-28T18:09:46.062Z,68.60
2023-01-28T18:12:15.817Z,68.58
2023-01-28T18:14:43.495Z,68.60
2023-01-28T18:17:11.603Z,68.86
2023-01-28T18:19:39.282Z,68.80
2023-01-28T18:22:06.951Z,68.84
2023-01-28T18:24:34.650Z,68.85
2023-01-28T18:27:03.990Z,68.83
2023-01-28T18:29:31.704Z,68.76
2023-01-28T18:32:00.257Z,68.72
2023-01-28T18:34:30.783Z,68.70
2023-01-28T18:36:58.928Z,68.70
2023-01-28T18:39:30.307Z,68.52
2023-01-28T18:41:59.138Z,68.68
2023-01-28T18:44:30.062Z,68.65
2023-01-28T18:46:57.873Z,68.70
2023-01-28T18:49:25.708Z,68.68
2023-01-28T18:51:54.051Z,68.65
2023-01-28T18:54:23.104Z,68.52
2023-01-28T18:56:50.864Z,68.61
2023-01-28T18:59:18.789Z,68.67
2023-01-28T19:01:47.870Z,68.54
2023-01-28T19:04:16.529Z,68.64
2023-01-28T19:06:45.507Z,68.64
2023-01-28T19:09:14.831Z,68.57
2023-01-28T19:11:43.276Z,68.59
2023-01-28T19:14:15.189Z,68.59
2023-01-28T19:16:43.847Z,68.64
2023-01-28T19:19:12.350Z,68.75
2023-01-28T19:21:40.113Z,68.77
2023-01-28T19:24:10.465Z,68.74
2023-01-28T19:26:38.522Z,68.78
2023-01-28T19:29:09.198Z,68.87
2023-01-28T19:31:38.338Z,68.79
2023-01-28T19:34:08.022Z,68.78
2023-01-28T19:36:35.975Z,68.74
2023-01-28T19:39:08.611Z,68.77
2023-01-28T19:41:37.231Z,68.79
2023-01-28T19:44:05.734Z,68.80
2023-01-28T19:46:36.105Z,68.87
2023-01-28T19:49:06.383Z,68.91
2023-01-28T19:51:34.721Z,68.78
2023-01-28T19:54:02.398Z,68.81
2023-01-28T19:56:30.573Z,68.81
2023-01-28T19:58:58.511Z,68.74
2023-01-28T20:01:30.163Z,68.86
2023-01-28T20:04:00.185Z,68.71
2023-01-28T20:06:30.140Z,68.78
2023-01-28T20:09:04.386Z,68.83
2023-01-28T20:11:32.027Z,68.84
2023-01-28T20:14:01.023Z,68.77
2023-01-28T20:16:30.920Z,68.72
2023-01-28T20:19:05.881Z,68.55
2023-01-28T20:21:34.760Z,68.66
2023-01-28T20:24:04.465Z,68.77
2023-01-28T20:26:34.842Z,68.99
2023-01-28T20:29:05.983Z,68.93
2023-01-28T20:31:34.819Z,68.89
2023-01-28T20:34:02.912Z,68.88
2023-01-28T20:36:30.854Z,68.88
2023-01-28T20:38:58.764Z,68.90
2023-01-28T20:41:27.117Z,68.87
2023-01-28T20:43:55.142Z,68.85
2023-01-28T20:46:27.596Z,68.82
2023-01-28T20:49:00.585Z,68.88
2023-01-28T20:51:30.229Z,68.93
2023-01-28T20:54:00.419Z,69.04
2023-01-28T20:56:30.028Z,69.05
2023-01-28T20:59:00.809Z,68.99
2023-01-28T21:01:33.501Z,69.09
2023-01-28T21:04:01.758Z,69.02
2023-01-28T21:06:29.804Z,69.04
2023-01-28T21:08:57.517Z,69.10
2023-01-28T21:11:26.427Z,68.99
2023-01-28T21:13:55.242Z,68.97
2023-01-28T21:16:23.377Z,69.12
2023-01-28T21:18:51.048Z,68.98
2023-01-28T21:21:21.200Z,68.93
2023-01-28T21:23:49.647Z,68.90
2023-01-28T21:26:17.734Z,68.91
2023-01-28T21:28:45.361Z,68.96
2023-01-28T21:31:17.364Z,69.07
2023-01-28T21:33:49.586Z,69.08
2023-01-28T21:36:18.356Z,69.14
2023-01-28T21:38:55.099Z,69.22
2023-01-28T21:41:23.140Z,69.15
2023-01-28T21:43:53.673Z,69.14
2023-01-28T21:46:22.923Z,69.15
2023-01-28T21:48:59.498Z,69.16
2023-01-28T21:51:44.079Z,69.17
2023-01-28T21:54:17.844Z,69.06
2023-01-28T21:56:47.634Z,69.19
2023-01-28T21:59:32.692Z,69.37
2023-01-28T22:02:01.506Z,69.26
2023-01-28T22:04:34.943Z,69.46
2023-01-28T22:07:04.697Z,69.33
2023-01-28T22:09:33.699Z,69.34
2023-01-28T22:12:03.579Z,69.33
2023-01-28T22:14:31.230Z,69.34
2023-01-28T22:16:59.016Z,69.43
2023-01-28T22:19:26.737Z,69.36
2023-01-28T22:21:54.391Z,69.41
2023-01-28T22:24:24.628Z,69.45
2023-01-28T22:26:53.745Z,69.54
2023-01-28T22:29:22.937Z,69.51
2023-01-28T22:31:53.198Z,69.59
2023-01-28T22:34:22.063Z,69.64
2023-01-28T22:36:50.835Z,69.62
2023-01-28T22:39:19.350Z,69.56
2023-01-28T22:41:47.517Z,69.56
2023-01-28T22:44:15.949Z,69.55
2023-01-28T22:46:43.678Z,69.57
2023-01-28T22:49:12.076Z,69.66
2023-01-28T22:51:39.810Z,69.70
2023-01-28T22:54:08.024Z,69.79
2023-01-28T22:56:35.752Z,69.68
2023-01-28T22:59:04.301Z,69.73
2023-01-28T23:01:32.202Z,69.75
2023-01-28T23:04:00.040Z,69.72
2023-01-28T23:06:28.384Z,69.94
2023-01-28T23:08:56.644Z,69.83
2023-01-28T23:11:25.768Z,69.89
2023-01-28T23:14:15.317Z,69.99
2023-01-28T23:16:59.116Z,70.03
2023-01-28T23:19:42.775Z,70.12
2023-01-28T23:22:38.300Z,70.07
2023-01-28T23:25:06.526Z,70.08
2023-01-28T23:27:34.331Z,70.19
2023-01-28T23:30:02.303Z,70.23
2023-01-28T23:32:30.383Z,70.17
2023-01-28T23:34:58.030Z,70.15
2023-01-28T23:37:25.703Z,70.05
2023-01-28T23:39:53.318Z,70.03
2023-01-28T23:42:21.319Z,70.12
2023-01-28T23:44:49.342Z,70.14
2023-01-28T23:47:17.197Z,70.09
2023-01-28T23:49:45.864Z,70.04
2023-01-28T23:52:13.532Z,70.13
2023-01-28T23:54:41.193Z,70.21
2023-01-28T23:57:09.805Z,70.09
2023-01-28T23:59:37.797Z,70.30
